Feng De Hai — VROR3 — position and weather

sailwx.info

Track history (hours):
 
Tides and Currents Weather Stations Pressure Air Temp Water Temp Dewpoint Dewpoint Depression Visibility Wind Speed Wind Dir Waves Ship Positions

Feng De Hai

Last reported at 2018-Feb-07 00:28 UTC. Time now 2018-Feb-21 01:57 UTC.
Position N 36°07' E 014°51'.
Warning: this ship's position is 14 days out of date.

Length 200 m; draft 10.8 m.

Type: Cargo ship. MMSI: 477684100.

Date/timePositionNaut miles runAvg speedWind from/ knotsBaromVisibWave heightAir tempDewpointWater temp
2018-Feb-07 00:28N 36°07' E 014°51'611.9
2018-Feb-06 23:56N 36°09' E 014°43'511.9
2018-Feb-06 23:30N 36°11' E 014°37'612.0
2018-Feb-06 23:00N 36°13' E 014°30'612.3
2018-Feb-06 22:30N 36°15' E 014°23'612.6
2018-Feb-06 22:00N 36°17' E 014°16'612.3
2018-Feb-06 21:30N 36°20' E 014°08'612.2
2018-Feb-06 21:00N 36°22' E 014°01'612.3
2018-Feb-06 20:30N 36°24' E 013°54'612.5
2018-Feb-06 19:59N 36°27' E 013°47'612.4
2018-Feb-06 19:30N 36°29' E 013°40'711.9
2018-Feb-06 18:57N 36°32' E 013°33'37812.9
2018-Feb-05 13:38N 37°34' E 005°46'213.2
2018-Feb-05 13:30N 37°34' E 005°44'713.2
2018-Feb-05 13:00N 37°34' E 005°35'613.0
2018-Feb-05 12:30N 37°34' E 005°27'813.1
2018-Feb-05 11:54N 37°34' E 005°17'51113.4
2018-Feb-03 21:40N 35°57' W 005°09'314.1
2018-Feb-03 21:28N 35°56' W 005°13'612.0
2018-Feb-03 21:01N 35°55' W 005°19'1 2.1
2018-Feb-03 20:29N 35°55' W 005°20'0 0.0
2018-Feb-03 19:59N 35°55' W 005°20'0 0.0
2018-Feb-03 18:29N 35°55' W 005°20'0 0.1
2018-Feb-03 17:59N 35°55' W 005°20'0 0.0
2018-Feb-03 17:29N 35°55' W 005°20'0 0.0
2018-Feb-03 16:59N 35°55' W 005°20'0 0.0
2018-Feb-03 15:59N 35°55' W 005°20'0 0.3
2018-Feb-03 15:29N 35°55' W 005°20'0 0.8
2018-Feb-03 15:00N 35°55' W 005°20'2 4.0
2018-Feb-03 14:30N 35°57' W 005°22'5 9.3
2018-Feb-03 14:00N 35°57' W 005°28'  
2018-Jan-30 18:22N 39°23' W 027°36'512.8
2018-Jan-30 18:00N 39°23' W 027°42'612.5
2018-Jan-30 17:31N 39°22' W 027°50'612.6
2018-Jan-30 17:00N 39°21' W 027°58'612.5
2018-Jan-30 16:30N 39°21' W 028°06'612.6
2018-Jan-30 16:00N 39°19' W 028°14'612.6
2018-Jan-30 15:30N 39°17' W 028°22'612.5
2018-Jan-30 15:00N 39°15' W 028°29'612.6
2018-Jan-30 14:31N 39°13' W 028°37'1212.4
2018-Jan-30 13:30N 39°08' W 028°52'612.7
2018-Jan-30 13:01N 39°06' W 028°60'612.5
2018-Jan-30 12:30N 39°04' W 029°07'612.7
2018-Jan-30 12:00N 39°01' W 029°14'612.7
2018-Jan-30 11:31N 38°58' W 029°22'1212.5
2018-Jan-30 10:30N 38°52' W 029°36'1212.3
2018-Jan-30 09:30N 38°46' W 029°50'612.8
2018-Jan-30 09:00N 38°43' W 029°57'612.5
2018-Jan-30 08:31N 38°41' W 030°04'612.5
2018-Jan-30 08:00N 38°38' W 030°12'612.2
2018-Jan-30 07:30N 38°36' W 030°19'612.2
2018-Jan-30 07:01N 38°33' W 030°26'612.4
2018-Jan-30 06:30N 38°30' W 030°33'712.0
2018-Jan-30 05:53N 38°27' W 030°41'511.8
2018-Jan-30 05:29N 38°24' W 030°46'1512.0
2018-Jan-30 04:17N 38°17' W 031°03'412.6
2018-Jan-30 03:56N 38°16' W 031°08'  
Track history (hours):
 
Tides and Currents Weather Stations Pressure Air Temp Water Temp Dewpoint Dewpoint Depression Visibility Wind Speed Wind Dir Waves Ship Positions

Feng De Hai

Last reported at 2018-Feb-07 00:28 UTC. Time now 2018-Feb-21 01:57 UTC.
Position N 36°07' E 014°51'.
Warning: this ship's position is 14 days out of date.

Length 200 m; draft 10.8 m.

Type: Cargo ship. MMSI: 477684100.

Date/timePositionNaut miles runAvg speedWind from/ knotsBaromVisibWave heightAir tempDewpointWater temp
2018-Feb-07 00:28N 36°07' E 014°51'611.9
2018-Feb-06 23:56N 36°09' E 014°43'511.9
2018-Feb-06 23:30N 36°11' E 014°37'612.0
2018-Feb-06 23:00N 36°13' E 014°30'612.3
2018-Feb-06 22:30N 36°15' E 014°23'612.6
2018-Feb-06 22:00N 36°17' E 014°16'612.3
2018-Feb-06 21:30N 36°20' E 014°08'612.2
2018-Feb-06 21:00N 36°22' E 014°01'612.3
2018-Feb-06 20:30N 36°24' E 013°54'612.5
2018-Feb-06 19:59N 36°27' E 013°47'612.4
2018-Feb-06 19:30N 36°29' E 013°40'711.9
2018-Feb-06 18:57N 36°32' E 013°33'37812.9
2018-Feb-05 13:38N 37°34' E 005°46'213.2
2018-Feb-05 13:30N 37°34' E 005°44'713.2
2018-Feb-05 13:00N 37°34' E 005°35'613.0
2018-Feb-05 12:30N 37°34' E 005°27'813.1
2018-Feb-05 11:54N 37°34' E 005°17'51113.4
2018-Feb-03 21:40N 35°57' W 005°09'314.1
2018-Feb-03 21:28N 35°56' W 005°13'612.0
2018-Feb-03 21:01N 35°55' W 005°19'1 2.1
2018-Feb-03 20:29N 35°55' W 005°20'0 0.0
2018-Feb-03 19:59N 35°55' W 005°20'0 0.0
2018-Feb-03 18:29N 35°55' W 005°20'0 0.1
2018-Feb-03 17:59N 35°55' W 005°20'0 0.0
2018-Feb-03 17:29N 35°55' W 005°20'0 0.0
2018-Feb-03 16:59N 35°55' W 005°20'0 0.0
2018-Feb-03 15:59N 35°55' W 005°20'0 0.3
2018-Feb-03 15:29N 35°55' W 005°20'0 0.8
2018-Feb-03 15:00N 35°55' W 005°20'2 4.0
2018-Feb-03 14:30N 35°57' W 005°22'5 9.3
2018-Feb-03 14:00N 35°57' W 005°28'  
2018-Jan-30 18:22N 39°23' W 027°36'512.8
2018-Jan-30 18:00N 39°23' W 027°42'612.5
2018-Jan-30 17:31N 39°22' W 027°50'612.6
2018-Jan-30 17:00N 39°21' W 027°58'612.5
2018-Jan-30 16:30N 39°21' W 028°06'612.6
2018-Jan-30 16:00N 39°19' W 028°14'612.6
2018-Jan-30 15:30N 39°17' W 028°22'612.5
2018-Jan-30 15:00N 39°15' W 028°29'612.6
2018-Jan-30 14:31N 39°13' W 028°37'1212.4
2018-Jan-30 13:30N 39°08' W 028°52'612.7
2018-Jan-30 13:01N 39°06' W 028°60'612.5
2018-Jan-30 12:30N 39°04' W 029°07'612.7
2018-Jan-30 12:00N 39°01' W 029°14'612.7
2018-Jan-30 11:31N 38°58' W 029°22'1212.5
2018-Jan-30 10:30N 38°52' W 029°36'1212.3
2018-Jan-30 09:30N 38°46' W 029°50'612.8
2018-Jan-30 09:00N 38°43' W 029°57'612.5
2018-Jan-30 08:31N 38°41' W 030°04'612.5
2018-Jan-30 08:00N 38°38' W 030°12'612.2
2018-Jan-30 07:30N 38°36' W 030°19'612.2
2018-Jan-30 07:01N 38°33' W 030°26'612.4
2018-Jan-30 06:30N 38°30' W 030°33'712.0
2018-Jan-30 05:53N 38°27' W 030°41'511.8
2018-Jan-30 05:29N 38°24' W 030°46'1512.0
2018-Jan-30 04:17N 38°17' W 031°03'412.6
2018-Jan-30 03:56N 38°16' W 031°08'  

Dump ship's entire track history